Time;durP1;ratioP1;P1;durP2;ratioP2;P2;SDS_P1;SDS_P2;PMS_P1;PMS_P2;Temp;Humidity;BMP_temperature;BMP_pressure;BME280_temperature;BME280_humidity;BME280_pressure;Samples;Min_cycle;Max_cycle;Signal;HPM_P1;HPM_P2
2021/11/28 00:00:27;;;;;;;6.45;3.45;;;3.60;99.90;;;;;;4889544;29;20096;-67
2021/11/28 00:02:54;;;;;;;5.32;3.35;;;3.60;99.90;;;;;;4889655;29;20371;-67
2021/11/28 00:05:22;;;;;;;10.75;3.50;;;3.60;99.90;;;;;;4890173;29;20044;-67
2021/11/28 00:08:11;;;;;;;6.13;4.20;;;3.60;99.90;;;;;;4889835;29;20235;-67
2021/11/28 00:13:23;;;;;;;6.15;3.47;;;3.60;99.90;;;;;;4889242;29;20028;-67
2021/11/28 00:15:49;;;;;;;3.60;2.90;;;3.50;99.90;;;;;;4890049;29;20027;-67
2021/11/28 00:18:15;;;;;;;5.38;3.13;;;3.60;99.90;;;;;;4888997;29;20502;-67
2021/11/28 00:20:41;;;;;;;3.90;2.65;;;3.60;99.90;;;;;;4890667;29;20067;-67
2021/11/28 00:23:07;;;;;;;2.78;2.15;;;3.60;99.90;;;;;;4889713;29;20044;-67
2021/11/28 00:25:32;;;;;;;3.55;2.70;;;3.60;99.90;;;;;;4889549;29;20040;-67
2021/11/28 00:27:59;;;;;;;3.30;2.40;;;3.60;99.90;;;;;;4889762;29;20222;-68
2021/11/28 00:30:27;;;;;;;4.03;2.30;;;3.60;99.90;;;;;;4890097;29;20052;-67
2021/11/28 00:32:53;;;;;;;3.22;2.30;;;3.60;99.90;;;;;;4889776;29;20028;-67
2021/11/28 00:35:19;;;;;;;4.10;2.58;;;3.60;99.90;;;;;;4890139;29;20025;-67
2021/11/28 00:37:45;;;;;;;5.45;3.28;;;3.60;99.90;;;;;;4888053;29;20041;-67
2021/11/28 00:40:12;;;;;;;4.22;2.58;;;3.60;99.90;;;;;;4889017;29;20589;-67
2021/11/28 00:42:38;;;;;;;3.58;2.05;;;3.60;99.90;;;;;;4890842;29;20369;-67
2021/11/28 00:45:23;;;;;;;4.20;2.53;;;3.60;99.90;;;;;;4889491;29;20247;-67
2021/11/28 00:47:49;;;;;;;3.25;2.47;;;3.60;99.90;;;;;;4890169;29;20029;-67
2021/11/28 00:52:43;;;;;;;3.38;2.00;;;3.60;99.90;;;;;;4889422;29;20109;-67
2021/11/28 00:55:12;;;;;;;2.63;1.83;;;3.60;99.90;;;;;;4889679;29;20033;-67
2021/11/28 00:57:38;;;;;;;3.50;2.23;;;3.50;99.90;;;;;;4890138;29;20251;-67
2021/11/28 01:00:06;;;;;;;3.67;2.20;;;3.50;99.90;;;;;;4888990;29;20029;-68
2021/11/28 01:02:33;;;;;;;3.08;1.90;;;3.40;99.90;;;;;;4889314;29;20028;-67
2021/11/28 01:05:00;;;;;;;3.20;2.22;;;3.50;99.90;;;;;;4887928;29;20025;-67
2021/11/28 01:07:26;;;;;;;2.63;2.00;;;3.50;99.90;;;;;;4889273;29;20028;-67
2021/11/28 01:09:53;;;;;;;3.67;2.10;;;3.50;99.90;;;;;;4889153;29;20028;-67
2021/11/28 01:12:20;;;;;;;3.00;1.70;;;3.40;99.90;;;;;;4888204;29;20346;-67
2021/11/28 01:14:46;;;;;;;3.30;2.40;;;3.40;99.90;;;;;;4889282;29;20036;-67
2021/11/28 01:17:12;;;;;;;2.95;2.15;;;3.40;99.90;;;;;;4888479;29;20359;-67
2021/11/28 01:19:38;;;;;;;3.22;2.33;;;3.40;99.90;;;;;;4890239;29;20039;-67
2021/11/28 01:22:07;;;;;;;4.32;2.70;;;3.40;99.90;;;;;;4887430;29;20058;-67
2021/11/28 01:24:34;;;;;;;3.90;2.38;;;3.50;99.90;;;;;;4889131;29;20118;-67
2021/11/28 01:27:00;;;;;;;4.97;2.75;;;3.50;99.90;;;;;;4888732;29;20036;-67
2021/11/28 01:29:26;;;;;;;4.72;2.70;;;3.50;99.90;;;;;;4888637;29;20339;-68
2021/11/28 01:31:53;;;;;;;4.15;2.55;;;3.50;99.90;;;;;;4888274;29;20081;-67
2021/11/28 01:34:19;;;;;;;3.70;2.63;;;3.50;99.90;;;;;;4888520;29;20227;-67
2021/11/28 01:36:45;;;;;;;5.20;3.00;;;3.50;99.90;;;;;;4889405;29;20032;-67
2021/11/28 01:39:11;;;;;;;4.60;2.88;;;3.50;99.90;;;;;;4887796;29;20045;-67
2021/11/28 01:41:37;;;;;;;4.60;2.83;;;3.50;99.90;;;;;;4889743;29;20111;-68
2021/11/28 01:44:05;;;;;;;3.83;2.50;;;3.60;99.90;;;;;;4887864;29;20036;-67
2021/11/28 01:46:32;;;;;;;5.70;2.45;;;3.60;99.90;;;;;;4888293;29;20032;-67
2021/11/28 01:48:59;;;;;;;4.68;2.47;;;3.60;99.90;;;;;;4888181;29;20037;-67
2021/11/28 01:51:25;;;;;;;3.17;2.05;;;3.60;99.90;;;;;;4888296;29;20345;-67
2021/11/28 01:53:53;;;;;;;3.33;2.33;;;3.60;99.90;;;;;;4888270;29;20393;-67
2021/11/28 01:56:23;;;;;;;14.90;3.75;;;3.70;99.90;;;;;;4886734;29;20029;-67
2021/11/28 01:58:48;;;;;;;;;;;3.70;99.90;;;;;;4890036;29;20043;-67
2021/11/28 02:01:18;;;;;;;3.72;2.92;;;3.60;99.90;;;;;;4889533;29;19915;-67
2021/11/28 02:03:46;;;;;;;3.25;2.58;;;3.70;99.90;;;;;;4891914;29;20043;-67
2021/11/28 02:06:16;;;;;;;5.20;2.47;;;3.70;99.90;;;;;;4891955;29;20040;-67
2021/11/28 02:08:43;;;;;;;3.60;3.17;;;3.70;99.90;;;;;;4891921;29;20029;-67
2021/11/28 02:11:11;;;;;;;4.32;3.05;;;3.70;99.90;;;;;;4892245;29;20104;-67
2021/11/28 02:13:37;;;;;;;4.07;2.90;;;3.60;99.90;;;;;;4891917;29;20049;-66
2021/11/28 02:16:04;;;;;;;3.72;2.90;;;3.70;99.90;;;;;;4892198;29;20061;-67
2021/11/28 02:18:30;;;;;;;6.32;3.20;;;3.70;99.90;;;;;;4892087;29;20036;-67
2021/11/28 02:20:59;;;;;;;4.57;2.90;;;3.70;99.90;;;;;;4891278;29;20033;-67
2021/11/28 02:23:25;;;;;;;3.17;2.40;;;3.70;99.90;;;;;;4891359;29;20108;-67
2021/11/28 02:25:56;;;;;;;3.58;2.60;;;3.70;99.90;;;;;;4890933;29;20035;-67
2021/11/28 02:28:22;;;;;;;4.10;2.60;;;3.70;99.90;;;;;;4880838;29;20060;-67
2021/11/28 02:30:48;;;;;;;3.72;2.63;;;3.70;99.90;;;;;;4892651;29;20366;-67
2021/11/28 02:33:15;;;;;;;5.07;2.95;;;3.80;99.90;;;;;;4892581;29;20021;-67
2021/11/28 02:35:40;;;;;;;6.38;2.63;;;3.80;99.90;;;;;;4891220;29;20266;-67
2021/11/28 02:38:08;;;;;;;3.50;2.70;;;3.80;99.90;;;;;;4890970;29;20068;-67
2021/11/28 02:40:37;;;;;;;4.53;3.22;;;3.80;99.90;;;;;;4890675;29;20056;-67
2021/11/28 02:43:03;;;;;;;4.32;2.92;;;3.80;99.90;;;;;;4891182;29;20032;-67
2021/11/28 02:45:31;;;;;;;3.75;2.67;;;3.90;99.90;;;;;;4891092;29;20033;-67
2021/11/28 02:47:58;;;;;;;4.22;3.08;;;3.90;99.90;;;;;;4890907;29;20399;-67
2021/11/28 02:50:25;;;;;;;4.32;3.00;;;3.80;99.90;;;;;;4890548;29;20303;-67
2021/11/28 02:52:55;;;;;;;3.38;2.60;;;3.90;99.90;;;;;;4890847;29;20060;-67
2021/11/28 02:55:32;;;;;;;4.22;2.97;;;3.90;99.90;;;;;;4890479;29;20041;-67
2021/11/28 02:57:58;;;;;;;3.72;2.80;;;3.90;99.90;;;;;;4891898;29;20037;-67
2021/11/28 03:00:27;;;;;;;3.95;2.72;;;3.90;99.90;;;;;;4889220;29;20331;-67
2021/11/28 03:02:53;;;;;;;4.35;3.22;;;4.00;99.90;;;;;;4890795;29;20099;-67
2021/11/28 03:05:19;;;;;;;4.35;2.75;;;3.90;99.90;;;;;;4891365;29;20091;-67
2021/11/28 03:07:44;;;;;;;4.30;3.22;;;3.80;99.90;;;;;;4891170;29;20060;-67
2021/11/28 03:10:43;;;;;;;4.28;2.70;;;3.90;99.90;;;;;;4890384;29;20043;-68
2021/11/28 03:13:16;;;;;;;5.45;2.67;;;3.90;99.90;;;;;;4874778;29;20036;-67
2021/11/28 03:15:42;;;;;;;6.15;3.15;;;4.00;99.90;;;;;;4890935;29;20051;-67
2021/11/28 03:18:13;;;;;;;4.57;2.80;;;3.90;99.90;;;;;;4889529;29;20043;-67
2021/11/28 03:20:39;;;;;;;3.47;2.40;;;3.90;99.90;;;;;;4889902;29;20091;-67
2021/11/28 03:23:05;;;;;;;3.88;2.75;;;3.90;99.90;;;;;;4890505;29;20071;-67
2021/11/28 03:25:32;;;;;;;5.03;3.00;;;3.90;99.90;;;;;;4891326;29;20067;-67
2021/11/28 03:27:58;;;;;;;3.58;2.53;;;3.90;99.90;;;;;;4891027;29;20044;-67
2021/11/28 03:30:24;;;;;;;4.57;2.88;;;3.80;99.90;;;;;;4891772;29;20443;-67
2021/11/28 03:32:51;;;;;;;3.78;2.35;;;3.80;99.90;;;;;;4890121;29;20087;-67
2021/11/28 03:35:18;;;;;;;3.13;2.40;;;3.90;99.90;;;;;;4890700;29;20351;-67
2021/11/28 03:37:44;;;;;;;4.25;2.88;;;3.90;99.90;;;;;;4890816;29;20044;-66
2021/11/28 03:40:12;;;;;;;3.65;2.70;;;3.90;99.90;;;;;;4890941;29;20365;-67
2021/11/28 03:42:38;;;;;;;4.20;2.80;;;3.90;99.90;;;;;;4890349;29;20452;-67
2021/11/28 03:45:07;;;;;;;4.65;2.95;;;3.90;99.90;;;;;;4889719;29;20324;-67
2021/11/28 03:47:33;;;;;;;4.10;2.63;;;3.90;99.90;;;;;;4890089;29;20029;-67
2021/11/28 03:49:59;;;;;;;6.00;2.60;;;3.80;99.90;;;;;;4890018;29;20037;-67
2021/11/28 03:52:25;;;;;;;3.47;2.42;;;4.00;99.90;;;;;;4890706;29;20052;-67
2021/11/28 03:54:51;;;;;;;3.58;2.53;;;3.90;99.90;;;;;;4889912;29;20047;-67
2021/11/28 03:57:17;;;;;;;3.78;2.80;;;3.90;99.90;;;;;;4890345;29;20448;-67
2021/11/28 03:59:43;;;;;;;3.05;2.28;;;3.90;99.90;;;;;;4891207;29;20036;-67
2021/11/28 04:02:09;;;;;;;3.58;2.58;;;3.90;99.90;;;;;;4889685;29;20672;-67
2021/11/28 04:04:35;;;;;;;3.40;2.47;;;3.90;99.90;;;;;;4890882;29;20029;-67
2021/11/28 04:07:01;;;;;;;4.03;2.83;;;3.90;99.90;;;;;;4873232;29;20354;-67
2021/11/28 04:09:26;;;;;;;6.47;3.00;;;3.90;99.90;;;;;;4889803;29;20044;-67
2021/11/28 04:11:52;;;;;;;6.57;3.38;;;3.90;99.90;;;;;;4889476;29;20032;-67
2021/11/28 04:14:19;;;;;;;5.40;3.25;;;3.90;99.90;;;;;;4889812;29;20360;-67
2021/11/28 04:16:46;;;;;;;5.10;3.40;;;3.90;99.90;;;;;;4889508;29;20028;-67
2021/11/28 04:19:12;;;;;;;4.75;3.00;;;3.90;99.90;;;;;;4889728;29;20047;-67
2021/11/28 04:21:42;;;;;;;5.20;3.08;;;3.90;99.90;;;;;;4889744;29;20029;-67
2021/11/28 04:24:08;;;;;;;;;;;3.90;99.90;;;;;;4890100;29;20053;-67
2021/11/28 04:26:34;;;;;;;7.57;3.90;;;3.80;99.90;;;;;;4890595;29;19915;-67
2021/11/28 04:29:01;;;;;;;6.00;3.60;;;3.80;99.90;;;;;;4889669;29;20037;-67
2021/11/28 04:31:27;;;;;;;6.22;4.00;;;3.90;99.90;;;;;;4889522;29;20387;-67
2021/11/28 04:33:53;;;;;;;5.78;3.60;;;3.90;99.90;;;;;;4889231;29;20160;-66
2021/11/28 04:36:19;;;;;;;6.85;4.07;;;3.90;99.90;;;;;;4889130;29;20339;-67
2021/11/28 04:38:44;;;;;;;6.40;4.00;;;3.90;99.90;;;;;;4889180;29;20084;-67
2021/11/28 04:41:10;;;;;;;7.05;4.15;;;3.90;99.90;;;;;;4888610;29;20471;-66
2021/11/28 04:43:36;;;;;;;6.25;3.95;;;3.90;99.90;;;;;;4888594;29;20052;-67
2021/11/28 04:46:02;;;;;;;6.53;4.07;;;3.90;99.90;;;;;;4890584;29;20029;-67
2021/11/28 04:48:28;;;;;;;6.95;4.07;;;3.90;99.90;;;;;;4889478;29;20032;-67
2021/11/28 04:50:54;;;;;;;5.57;3.40;;;4.00;99.90;;;;;;4888925;29;20370;-67
2021/11/28 04:53:21;;;;;;;6.13;3.47;;;4.00;99.90;;;;;;4888602;29;20036;-66
2021/11/28 04:55:47;;;;;;;4.78;3.25;;;3.90;99.90;;;;;;4888803;29;20377;-67
2021/11/28 04:58:13;;;;;;;5.32;3.05;;;3.90;99.90;;;;;;4870390;29;20232;-67
2021/11/28 05:00:39;;;;;;;6.63;3.85;;;3.90;99.90;;;;;;4887703;29;20035;-67
2021/11/28 05:03:05;;;;;;;6.72;3.60;;;3.90;99.90;;;;;;4888675;29;20036;-67
2021/11/28 05:05:31;;;;;;;5.75;3.40;;;3.90;99.90;;;;;;4887716;29;20072;-67
2021/11/28 05:07:57;;;;;;;5.30;3.30;;;3.90;99.90;;;;;;4887746;29;20029;-67
2021/11/28 05:10:24;;;;;;;4.93;2.83;;;3.90;99.90;;;;;;4888846;29;20052;-67
2021/11/28 05:12:50;;;;;;;5.43;2.97;;;4.00;99.90;;;;;;4887427;29;20045;-67
2021/11/28 05:15:17;;;;;;;4.32;2.67;;;3.90;99.90;;;;;;4887586;29;20154;-67
2021/11/28 05:17:42;;;;;;;5.00;3.15;;;4.00;99.90;;;;;;4887551;29;20041;-67
2021/11/28 05:20:09;;;;;;;4.75;3.25;;;3.90;99.90;;;;;;4888126;29;20035;-67
2021/11/28 05:22:35;;;;;;;5.63;3.35;;;4.00;99.90;;;;;;4887099;29;20044;-67
2021/11/28 05:25:03;;;;;;;5.60;3.03;;;4.00;99.90;;;;;;4888294;29;20063;-67
2021/11/28 05:27:29;;;;;;;4.93;2.85;;;3.90;99.90;;;;;;4889362;29;20029;-67
2021/11/28 05:29:55;;;;;;;4.88;2.85;;;3.90;99.90;;;;;;4887546;29;20024;-67
2021/11/28 05:32:21;;;;;;;4.78;2.90;;;3.90;99.90;;;;;;4888228;29;20162;-67
2021/11/28 05:34:47;;;;;;;4.65;3.03;;;3.90;99.90;;;;;;4888358;29;20311;-67
2021/11/28 05:37:15;;;;;;;5.28;3.38;;;3.90;99.90;;;;;;4887626;29;20232;-67
2021/11/28 05:39:42;;;;;;;7.22;3.65;;;3.90;99.90;;;;;;4888136;29;20331;-67
2021/11/28 05:42:08;;;;;;;6.35;3.60;;;3.90;99.90;;;;;;4888112;29;20040;-67
2021/11/28 05:44:34;;;;;;;7.07;3.33;;;3.90;99.90;;;;;;4884392;29;20099;-67
2021/11/28 05:47:00;;;;;;;5.53;3.70;;;3.90;99.90;;;;;;4887670;29;20096;-67
2021/11/28 05:49:26;;;;;;;5.55;3.60;;;4.00;99.90;;;;;;4888545;29;20032;-67
2021/11/28 05:51:52;;;;;;;6.03;3.67;;;4.00;99.90;;;;;;4887444;29;20564;-67
2021/11/28 05:54:18;;;;;;;6.38;3.40;;;4.00;99.90;;;;;;4887340;29;20230;-67
2021/11/28 05:56:44;;;;;;;4.43;3.20;;;3.90;99.90;;;;;;4887899;29;20096;-67
2021/11/28 05:59:10;;;;;;;4.53;2.45;;;3.90;99.90;;;;;;4888441;29;20079;-67
2021/11/28 06:01:36;;;;;;;3.15;2.25;;;3.90;99.90;;;;;;4886874;29;20569;-67
2021/11/28 06:04:02;;;;;;;3.20;1.90;;;3.90;99.90;;;;;;4886586;29;20096;-67
2021/11/28 06:06:28;;;;;;;2.60;1.55;;;3.90;99.90;;;;;;4885360;29;20029;-66
2021/11/28 06:08:55;;;;;;;4.45;1.83;;;3.90;99.90;;;;;;4887635;29;20038;-67
2021/11/28 06:11:21;;;;;;;4.22;1.85;;;3.90;99.90;;;;;;4887117;29;20036;-67
2021/11/28 06:13:47;;;;;;;3.00;1.85;;;3.90;99.90;;;;;;4887387;29;20025;-67
2021/11/28 06:16:13;;;;;;;3.70;2.50;;;3.90;99.90;;;;;;4887914;29;20096;-67
2021/11/28 06:18:39;;;;;;;2.83;2.05;;;3.90;99.90;;;;;;4869318;29;20053;-67
2021/11/28 06:21:05;;;;;;;3.60;2.08;;;3.90;99.90;;;;;;4888938;29;20036;-67
2021/11/28 06:23:30;;;;;;;3.75;2.20;;;3.90;99.90;;;;;;4887535;29;20326;-67
2021/11/28 06:25:56;;;;;;;3.55;1.98;;;3.90;99.90;;;;;;4884400;29;20096;-67
2021/11/28 06:28:22;;;;;;;3.80;2.50;;;3.90;99.90;;;;;;4886973;29;20112;-67
2021/11/28 06:30:48;;;;;;;4.68;2.70;;;3.90;99.90;;;;;;4888016;29;20040;-67
2021/11/28 06:33:15;;;;;;;3.45;2.10;;;3.90;99.90;;;;;;4886977;29;20032;-67
2021/11/28 06:35:41;;;;;;;5.47;2.83;;;4.00;99.90;;;;;;4871657;29;20029;-67
2021/11/28 06:38:07;;;;;;;4.97;2.70;;;3.90;99.90;;;;;;4885531;29;20045;-67
2021/11/28 06:40:33;;;;;;;4.32;2.63;;;3.90;99.90;;;;;;4888769;29;20133;-67
2021/11/28 06:42:59;;;;;;;4.55;2.65;;;4.00;99.90;;;;;;4889618;29;20099;-67
2021/11/28 06:45:25;;;;;;;4.57;2.95;;;4.00;99.90;;;;;;4886843;29;20358;-67
2021/11/28 06:47:51;;;;;;;4.85;2.58;;;4.00;99.90;;;;;;4887527;29;20033;-67
2021/11/28 06:50:17;;;;;;;4.85;2.85;;;4.00;99.90;;;;;;4890880;29;20036;-67
2021/11/28 06:52:43;;;;;;;4.63;2.60;;;4.00;99.90;;;;;;4891631;29;20327;-67
2021/11/28 06:55:09;;;;;;;4.00;2.75;;;3.90;99.90;;;;;;4889843;29;20063;-67
2021/11/28 06:57:35;;;;;;;6.25;2.85;;;3.90;99.90;;;;;;4872561;29;20537;-67
2021/11/28 07:00:01;;;;;;;5.35;2.92;;;3.90;99.90;;;;;;4889169;29;20119;-67
2021/11/28 07:02:28;;;;;;;4.80;2.72;;;4.00;99.90;;;;;;4890145;29;20024;-67
2021/11/28 07:04:54;;;;;;;5.10;2.90;;;4.00;99.90;;;;;;4889840;29;20055;-67
2021/11/28 07:07:20;;;;;;;5.28;2.97;;;4.00;99.90;;;;;;4890928;29;21016;-67
2021/11/28 07:09:46;;;;;;;5.57;2.97;;;4.10;99.90;;;;;;4888152;29;20113;-67
2021/11/28 07:12:11;;;;;;;4.95;2.85;;;4.00;99.90;;;;;;4889578;29;20354;-67
2021/11/28 07:14:37;;;;;;;6.60;2.92;;;4.10;99.90;;;;;;4890013;29;20028;-67
2021/11/28 07:17:03;;;;;;;4.93;2.85;;;4.00;99.90;;;;;;4889237;29;20052;-67
2021/11/28 07:19:29;;;;;;;5.00;3.20;;;4.10;99.90;;;;;;4886439;29;20051;-67
2021/11/28 07:21:57;;;;;;;4.20;2.90;;;4.10;99.90;;;;;;4888345;29;20053;-67
2021/11/28 07:24:23;;;;;;;4.28;3.13;;;4.10;99.90;;;;;;4872108;29;20060;-67
2021/11/28 07:26:49;;;;;;;4.97;3.17;;;4.10;99.90;;;;;;4889218;29;20033;-67
2021/11/28 07:29:15;;;;;;;4.78;2.90;;;4.10;99.90;;;;;;4889158;29;20117;-67
2021/11/28 07:31:40;;;;;;;5.25;2.85;;;4.10;99.90;;;;;;4888370;29;20359;-67
2021/11/28 07:34:06;;;;;;;7.10;3.85;;;4.10;99.90;;;;;;4882529;29;20234;-67
2021/11/28 07:36:32;;;;;;;5.68;3.60;;;4.10;99.90;;;;;;4883851;29;20029;-67
2021/11/28 07:38:58;;;;;;;6.05;3.55;;;4.10;99.90;;;;;;4887413;29;20101;-67
2021/11/28 07:41:24;;;;;;;5.82;3.30;;;4.10;99.90;;;;;;4888517;29;20089;-67
2021/11/28 07:43:50;;;;;;;4.80;3.30;;;4.10;99.90;;;;;;4882346;29;20635;-68
2021/11/28 07:46:15;;;;;;;5.75;4.07;;;4.20;99.90;;;;;;4887319;29;20437;-67
2021/11/28 07:48:41;;;;;;;5.60;3.42;;;4.10;99.90;;;;;;4887054;29;20084;-67
2021/11/28 07:51:08;;;;;;;5.38;3.40;;;4.10;99.90;;;;;;4888963;29;20036;-67
2021/11/28 07:53:34;;;;;;;4.65;3.08;;;4.10;99.90;;;;;;4889477;29;20036;-67
2021/11/28 07:56:00;;;;;;;4.90;3.65;;;4.10;99.90;;;;;;4888051;29;20336;-67
2021/11/28 07:58:25;;;;;;;6.43;3.45;;;4.20;99.90;;;;;;4886735;29;20047;-67
2021/11/28 08:00:51;;;;;;;5.57;3.53;;;4.10;99.90;;;;;;4887824;29;20056;-67
2021/11/28 08:03:18;;;;;;;5.05;3.78;;;4.20;99.90;;;;;;4887694;29;20060;-67
2021/11/28 08:05:44;;;;;;;5.68;3.90;;;4.10;99.90;;;;;;4889412;29;20357;-67
2021/11/28 08:08:11;;;;;;;5.63;3.85;;;4.10;99.90;;;;;;4888514;29;20115;-67
2021/11/28 08:10:37;;;;;;;6.18;4.32;;;4.10;99.90;;;;;;4888162;29;20349;-67
2021/11/28 08:13:03;;;;;;;5.18;3.30;;;4.10;99.90;;;;;;4888616;29;20040;-67
2021/11/28 08:15:29;;;;;;;4.88;3.42;;;4.10;99.90;;;;;;4886628;29;20504;-67
2021/11/28 08:17:55;;;;;;;5.13;3.22;;;4.10;99.90;;;;;;4888057;29;20493;-67
2021/11/28 08:20:22;;;;;;;5.65;4.22;;;4.10;99.90;;;;;;4872276;29;20037;-67
2021/11/28 08:22:48;;;;;;;5.90;3.63;;;4.10;99.90;;;;;;4888475;29;20052;-66
2021/11/28 08:25:15;;;;;;;5.18;3.47;;;4.10;99.90;;;;;;4890154;29;20047;-68
2021/11/28 08:27:42;;;;;;;5.22;3.90;;;4.10;99.90;;;;;;4887843;29;20381;-66
2021/11/28 08:30:15;;;;;;;7.13;4.65;;;4.10;99.90;;;;;;4887069;29;20066;-67
2021/11/28 08:32:42;;;;;;;6.38;4.10;;;4.10;99.90;;;;;;4888498;29;20402;-67
2021/11/28 08:35:09;;;;;;;5.30;3.20;;;4.20;99.90;;;;;;4885434;29;20397;-66
2021/11/28 08:37:35;;;;;;;6.07;3.63;;;4.10;99.90;;;;;;4888203;29;20048;-66
2021/11/28 08:40:04;;;;;;;8.02;3.60;;;4.20;99.90;;;;;;4870716;29;20036;-66
2021/11/28 08:42:33;;;;;;;6.90;3.83;;;4.20;99.90;;;;;;4883986;29;20389;-66
2021/11/28 08:45:00;;;;;;;8.20;4.50;;;4.20;99.90;;;;;;4887649;29;20035;-67
2021/11/28 08:47:26;;;;;;;7.57;4.55;;;4.30;99.90;;;;;;4888548;29;20032;-66
2021/11/28 08:49:52;;;;;;;10.40;4.60;;;4.30;99.90;;;;;;4886629;29;20025;-67
2021/11/28 08:52:18;;;;;;;7.50;4.40;;;4.30;99.90;;;;;;4882997;29;20085;-67
2021/11/28 08:54:44;;;;;;;10.13;5.53;;;4.30;99.90;;;;;;4881128;29;20319;-66
2021/11/28 08:57:10;;;;;;;9.68;5.13;;;4.40;99.90;;;;;;4886391;29;20192;-66
2021/11/28 08:59:36;;;;;;;9.85;5.10;;;4.40;99.90;;;;;;4886750;29;20246;-66
2021/11/28 09:02:02;;;;;;;10.80;5.47;;;4.40;99.90;;;;;;4882856;29;20035;-66
2021/11/28 09:04:27;;;;;;;11.75;5.80;;;4.40;99.90;;;;;;4883515;29;20116;-67
2021/11/28 09:06:53;;;;;;;8.90;5.03;;;4.40;99.90;;;;;;4883702;29;20028;-67
2021/11/28 09:09:19;;;;;;;11.50;5.22;;;4.50;99.90;;;;;;4885900;29;20079;-67
2021/11/28 09:11:45;;;;;;;11.10;5.38;;;4.60;99.90;;;;;;4885429;29;20038;-66
2021/11/28 09:14:11;;;;;;;13.25;7.07;;;4.50;99.90;;;;;;4883791;29;20047;-67
2021/11/28 09:16:38;;;;;;;10.57;6.40;;;4.50;99.90;;;;;;4882793;29;20033;-67
2021/11/28 09:19:13;;;;;;;11.07;6.50;;;4.50;99.90;;;;;;4868305;29;20048;-66
2021/11/28 09:21:39;;;;;;;13.57;6.20;;;4.60;99.90;;;;;;4886395;29;20035;-67
2021/11/28 09:26:49;;;;;;;15.80;8.88;;;4.60;99.90;;;;;;4886674;29;20044;-67
2021/11/28 09:29:15;;;;;;;13.95;8.57;;;4.60;99.90;;;;;;4887000;29;20040;-67
2021/11/28 09:31:41;;;;;;;20.58;8.88;;;4.60;99.90;;;;;;4887014;29;20029;-67
2021/11/28 09:34:07;;;;;;;14.80;8.77;;;4.70;99.90;;;;;;4886488;29;20048;-66
2021/11/28 09:36:33;;;;;;;13.88;8.18;;;4.60;99.90;;;;;;4881940;29;20067;-66
2021/11/28 09:39:01;;;;;;;13.45;7.72;;;4.70;99.90;;;;;;4881757;29;20036;-66
2021/11/28 09:41:34;;;;;;;12.50;6.63;;;4.70;99.90;;;;;;4867708;29;20028;-67
2021/11/28 09:44:07;;;;;;;12.07;7.60;;;4.70;99.90;;;;;;4885425;29;20021;-67
2021/11/28 09:46:33;;;;;;;9.13;6.25;;;4.80;99.90;;;;;;4885381;29;20390;-67
2021/11/28 09:49:03;;;;;;;9.18;6.20;;;4.80;99.90;;;;;;4886740;29;20251;-66
2021/11/28 09:51:29;;;;;;;9.35;5.63;;;4.80;99.90;;;;;;4885596;29;20535;-66
2021/11/28 09:53:57;;;;;;;7.90;5.38;;;4.80;99.90;;;;;;4884313;29;20056;-67
2021/11/28 09:56:24;;;;;;;9.65;5.93;;;4.90;99.90;;;;;;4879518;29;20265;-67
2021/11/28 09:58:51;;;;;;;8.15;6.30;;;4.80;99.90;;;;;;4884595;29;20432;-67
2021/11/28 10:01:17;;;;;;;8.65;6.13;;;4.90;99.90;;;;;;4882485;29;20036;-68
2021/11/28 10:03:43;;;;;;;8.80;5.75;;;4.90;99.90;;;;;;4885916;29;20039;-67
2021/11/28 10:06:09;;;;;;;9.55;5.55;;;4.80;99.90;;;;;;4885216;29;20032;-67
2021/11/28 10:08:36;;;;;;;11.77;6.88;;;4.80;99.90;;;;;;4887603;29;20372;-67
2021/11/28 10:11:26;;;;;;;11.15;6.82;;;4.70;99.90;;;;;;4886173;29;20036;-67
2021/11/28 10:13:54;;;;;;;7.25;4.63;;;4.70;99.90;;;;;;4887353;29;20332;-67
2021/11/28 10:16:21;;;;;;;7.28;4.43;;;4.70;99.90;;;;;;4885650;29;20029;-67
2021/11/28 10:18:47;;;;;;;7.18;4.47;;;4.70;99.90;;;;;;4884373;29;20048;-67
2021/11/28 10:21:13;;;;;;;7.53;3.97;;;4.60;99.90;;;;;;4885744;29;20107;-66
2021/11/28 10:24:11;;;;;;;9.48;4.72;;;4.70;99.90;;;;;;4888206;29;20048;-67
2021/11/28 10:26:55;;;;;;;7.22;4.68;;;4.60;99.90;;;;;;4886115;29;20097;-67
2021/11/28 10:29:23;;;;;;;7.03;3.83;;;4.70;99.90;;;;;;4887317;29;20039;-67
2021/11/28 10:31:55;;;;;;;5.72;3.78;;;4.80;99.90;;;;;;4889493;29;20327;-67
2021/11/28 10:34:30;;;;;;;5.28;3.35;;;4.80;99.90;;;;;;4887063;29;20035;-67
2021/11/28 10:37:07;;;;;;;5.55;3.30;;;4.80;99.90;;;;;;4888326;29;20033;-67
2021/11/28 10:39:39;;;;;;;5.15;3.30;;;4.90;99.90;;;;;;4889015;29;20494;-67
2021/11/28 10:42:06;;;;;;;4.80;2.90;;;4.90;99.90;;;;;;4890140;29;20221;-66
2021/11/28 10:44:32;;;;;;;6.07;3.58;;;4.80;99.90;;;;;;4871671;29;20039;-67
2021/11/28 10:47:06;;;;;;;6.45;4.05;;;4.80;99.90;;;;;;4890200;29;20272;-67
2021/11/28 10:49:38;;;;;;;5.03;3.22;;;4.90;99.90;;;;;;4888535;29;20464;-67
2021/11/28 10:52:29;;;;;;;5.65;3.33;;;4.90;99.90;;;;;;4889625;29;20024;-67
2021/11/28 10:54:56;;;;;;;4.80;3.15;;;4.80;99.90;;;;;;4888519;29;20412;-67
2021/11/28 10:57:24;;;;;;;6.75;3.75;;;4.80;99.90;;;;;;4891259;29;20303;-67
2021/11/28 10:59:59;;;;;;;4.80;2.95;;;4.80;99.90;;;;;;4888952;29;20465;-67
2021/11/28 11:02:30;;;;;;;5.90;3.65;;;4.80;99.90;;;;;;4887848;29;20036;-67
2021/11/28 11:04:58;;;;;;;7.18;3.85;;;4.80;99.90;;;;;;4890201;29;20388;-67
2021/11/28 11:07:25;;;;;;;8.63;3.78;;;4.80;99.90;;;;;;4891312;29;20023;-67
2021/11/28 11:09:53;;;;;;;6.28;3.97;;;4.90;99.90;;;;;;4889554;29;20036;-67
2021/11/28 11:12:28;;;;;;;6.75;3.83;;;4.90;99.90;;;;;;4893081;29;20032;-67
2021/11/28 11:14:59;;;;;;;6.78;3.78;;;5.00;99.90;;;;;;4884814;29;20033;-66
2021/11/28 11:17:31;;;;;;;5.32;3.38;;;5.10;99.90;;;;;;4890642;29;20126;-66
2021/11/28 11:19:58;;;;;;;5.70;3.47;;;5.20;99.90;;;;;;4889553;29;20138;-67
2021/11/28 11:22:26;;;;;;;5.75;3.33;;;5.10;99.90;;;;;;4889352;29;20036;-66
2021/11/28 11:25:00;;;;;;;6.53;3.28;;;5.10;99.90;;;;;;4889093;29;20418;-67
2021/11/28 11:27:38;;;;;;;5.03;2.90;;;5.10;99.90;;;;;;4887221;29;20056;-67
2021/11/28 11:30:12;;;;;;;4.40;2.88;;;5.00;99.90;;;;;;4872134;29;20036;-67
2021/11/28 11:32:51;;;;;;;4.55;2.80;;;5.10;99.90;;;;;;4888922;29;20024;-67
2021/11/28 11:35:23;;;;;;;4.95;2.72;;;5.10;99.90;;;;;;4888262;29;20387;-66
2021/11/28 11:37:51;;;;;;;4.55;3.05;;;5.20;99.90;;;;;;4887618;29;20368;-66
2021/11/28 11:40:21;;;;;;;4.43;2.33;;;5.30;99.90;;;;;;4888930;29;20276;-67
2021/11/28 11:42:47;;;;;;;;;;;5.40;99.90;;;;;;4890280;29;20255;-67
2021/11/28 11:45:19;;;;;;;5.22;3.08;;;5.40;99.90;;;;;;4888992;29;19978;-67
2021/11/28 11:47:46;;;;;;;4.03;2.47;;;5.30;99.90;;;;;;4889459;29;20120;-66
2021/11/28 11:50:15;;;;;;;4.25;2.60;;;5.30;99.90;;;;;;4887929;29;20029;-66
2021/11/28 11:52:41;;;;;;;4.40;2.70;;;5.40;99.90;;;;;;4888420;29;20343;-67
2021/11/28 11:55:14;;;;;;;6.78;3.83;;;5.30;99.90;;;;;;4889901;29;20041;-66
2021/11/28 11:57:44;;;;;;;6.18;4.05;;;5.40;99.90;;;;;;4890633;29;20086;-67
2021/11/28 12:00:28;;;;;;;7.53;4.50;;;5.50;99.90;;;;;;4887378;29;20242;-66
2021/11/28 12:02:55;;;;;;;7.05;3.97;;;5.40;99.90;;;;;;4873741;29;20037;-66
2021/11/28 12:05:31;;;;;;;5.28;3.25;;;5.50;99.90;;;;;;4888623;29;20254;-66
2021/11/28 12:08:08;;;;;;;5.53;3.42;;;5.40;99.90;;;;;;4889309;29;20048;-66
2021/11/28 12:10:47;;;;;;;7.28;3.92;;;5.30;99.90;;;;;;4888006;29;20033;-67
2021/11/28 12:13:25;;;;;;;6.30;3.60;;;5.40;99.90;;;;;;4890392;29;20228;-67
2021/11/28 12:15:57;;;;;;;7.18;4.43;;;5.40;99.90;;;;;;4889571;29;20431;-67
2021/11/28 12:18:36;;;;;;;6.22;3.38;;;5.40;99.90;;;;;;4888532;29;20036;-67
2021/11/28 12:21:09;;;;;;;6.97;3.57;;;5.40;99.90;;;;;;4887653;29;20385;-67
2021/11/28 12:23:51;;;;;;;4.97;2.90;;;5.30;99.90;;;;;;4889176;29;20083;-66
2021/11/28 12:26:47;;;;;;;5.22;2.85;;;5.30;99.90;;;;;;4888898;29;20029;-67
2021/11/28 12:29:16;;;;;;;7.40;3.30;;;5.30;99.90;;;;;;4886840;29;20045;-67
2021/11/28 12:31:46;;;;;;;3.97;2.88;;;5.40;99.90;;;;;;4889576;29;20044;-66
2021/11/28 12:34:49;;;;;;;5.90;3.25;;;5.30;99.90;;;;;;4886718;29;20039;-66
2021/11/28 12:37:20;;;;;;;4.38;2.53;;;5.30;99.90;;;;;;4887825;29;20032;-67
2021/11/28 12:39:46;;;;;;;3.95;2.60;;;5.40;99.90;;;;;;4888246;29;20044;-66
2021/11/28 12:42:14;;;;;;;4.47;2.92;;;5.30;99.90;;;;;;4890636;29;20100;-67
2021/11/28 12:44:48;;;;;;;4.65;2.83;;;5.30;99.90;;;;;;4890190;29;20127;-66
2021/11/28 12:47:14;;;;;;;4.53;2.80;;;5.30;99.90;;;;;;4887755;29;20282;-67
2021/11/28 12:49:58;;;;;;;5.35;2.95;;;5.20;99.90;;;;;;4886480;29;20044;-67
2021/11/28 12:52:29;;;;;;;4.22;2.42;;;5.20;99.90;;;;;;4889689;29;20096;-67
2021/11/28 12:55:04;;;;;;;6.15;3.30;;;5.20;99.90;;;;;;4872005;29;20280;-66
2021/11/28 12:58:08;;;;;;;4.57;2.85;;;5.10;99.90;;;;;;4872027;29;20224;-66
2021/11/28 13:00:49;;;;;;;6.50;3.28;;;5.10;99.90;;;;;;4851261;29;20102;-66
2021/11/28 13:03:15;;;;;;;6.57;4.10;;;5.00;99.90;;;;;;4850493;29;20033;-67
2021/11/28 13:05:43;;;;;;;7.00;3.88;;;5.00;99.90;;;;;;4870878;29;20208;-67
2021/11/28 13:08:10;;;;;;;8.57;4.80;;;5.00;99.90;;;;;;4887606;29;20080;-67
2021/11/28 13:10:39;;;;;;;5.93;3.95;;;5.00;99.90;;;;;;4888482;29;20487;-66